Jester, Texas
Current Conditions -  °F | °C
As of 5:53 PM on Friday 31 Oct 2014 (Local Time) from KCRS Reporting Station
Clear Clear  
Wind Chill: 65°   Ceiling: Unl
Heat Index: 65°   Visibility: 10mi
Dew Point: 39°   Wind: 9mph
Humidity: 39%   Direction: 10°N
Pressure: 30.28"   Gusts: 20mph
Location:  31.9458°N, 96.5713°W
Report Text: KCRS 312253Z AUTO 01008G17KT 10SM CLR 18/04 A3028 RMK AO2 SLP253 T01830039
Loading
Personal Weather Stations






























Interactive Weather Map
Tropical Storm Tracking
New forecast layout! Learn more

10-Day Weather Forecast

Advertisements
Track Severe Weather on mobile